Alamogordo, New Mexico
Current Conditions -  °F | °C
As of 8:58 PM on Sunday 19 Oct 2014 (Local Time) from KHMN Reporting Station
Clear Clear  
Wind Chill: 62°   Ceiling: Unl
Heat Index: 62°   Visibility: 10mi
Dew Point: 46°   Wind: 6mph
Humidity: 55%   Direction: 320°NW
Pressure: 30.01"   Gusts: NA
Location:  32.9°N, 105.96°W
Report Text: KHMN 200258Z AUTO 32005KT 10SM CLR 17/08 A3001 RMK AO2 SLP112 T01660076 53004 $
Loading
Personal Weather Stations






























Interactive Weather Map
Tropical Storm Tracking
New forecast layout! Learn more

10-Day Weather Forecast

Advertisements
Track Severe Weather on mobile